New Bern, North Carolina
Current Conditions -  °F | °C
As of 8:54 AM on Thursday 27 Nov 2014 (Local Time) from KEWN Reporting Station
Overcast Overcast  
Wind Chill: 46°   Ceiling: 8500
Heat Index: 48°   Visibility: 10mi
Dew Point: 43°   Wind: 5mph
Humidity: 83%   Direction: 90°E
Pressure: 30.05"   Gusts: NA
Location:  35.11°N, 77.04°W
Report Text: KEWN 271354Z 09004KT 10SM BKN085 OVC110 09/06 A3005 RMK AO2 SLP174 T00890061
Loading
Personal Weather Stations






























Interactive Weather Map New forecast layout! Learn more

10-Day Weather Forecast

Advertisements
Track Severe Weather on mobile